Flight Track Log - Related Links

Times and Time Zones

All times are in EDT time to prevent confusion due to time zone crossing. See the XOJ765 flight status page for this flight to view local times or setup timezone preferences in your user account.

Time Position Orientation Groundspeed Altitude Reporting Facility
EDT Latitude Longitude Course Direction KTS MPH feet Rate Location/Type
Wed 07:10:29 PM 37.7333 -122.2500 302° West 181 208 1,300  Level Northern Cal TRACON
Wed 07:11:29 PM 37.7667 -122.3167 302° West 224 258 3,800 2,646 Climbing Northern Cal TRACON
Wed 07:13:10 PM 37.8611 -122.2519 28° Northeast 269 310 8,400 2,630 Climbing Oakland Center
Wed 07:14:11 PM 37.9206 -122.1817 43° Northeast 287 330 10,900 2,213 Climbing Oakland Center
Wed 07:15:12 PM 37.9894 -122.0994 43° Northeast 331 381 12,900 2,066 Climbing Oakland Center
Wed 07:16:13 PM 38.0622 -122.0122 43° Northeast 356 410 15,100 2,361 Climbing Oakland Center
Wed 07:17:14 PM 38.1561 -121.8986 44° Northeast 383 441 17,700 2,066 Climbing Oakland Center
Wed 07:18:15 PM 38.2369 -121.8008 44° Northeast 398 458 19,300 1,512 Climbing Oakland Center
Wed 07:19:17 PM 38.3231 -121.6967 43° Northeast 421 484 20,800 1,561 Climbing Oakland Center
Wed 07:20:18 PM 38.4114 -121.5897 43° Northeast 434 499 22,500 1,623 Climbing Oakland Center
Wed 07:21:19 PM 38.4928 -121.4678 50° Northeast 451 519 24,100 1,475 Climbing Oakland Center
Wed 07:22:20 PM 38.5706 -121.3319 54° Northeast 469 540 25,500 1,279 Climbing Oakland Center
Wed 07:24:22 PM 38.7364 -121.0483 53° Northeast 502 578 28,000 1,180 Climbing Oakland Center
Wed 07:25:23 PM 38.8222 -120.8992 54° Northeast 518 596 29,100 1,171 Climbing Oakland Center
Wed 07:26:25 PM 38.9100 -120.7472 53° Northeast 529 609 30,400 1,171 Climbing Oakland Center
Wed 07:27:26 PM 38.9983 -120.5922 54° Northeast 537 618 31,500 1,230 Climbing Oakland Center
Wed 07:28:27 PM 39.1086 -120.4019 53° Northeast 554 638 32,900 1,574 Climbing Oakland Center
Wed 07:29:28 PM 39.2006 -120.2406 54° Northeast 559 643 34,700 2,049 Climbing Oakland Center
Wed 07:30:30 PM 39.2822 -120.0875 55° Northeast 548 631 37,100 1,452 Climbing Oakland Center
Wed 07:31:32 PM 39.3467 -119.9117 65° Northeast 546 628 37,700 1,377 Climbing Oakland Center
Wed 07:32:32 PM 39.4125 -119.7344 64° Northeast 547 629 39,900 1,190 Climbing Oakland Center
Wed 07:33:33 PM 39.4731 -119.5633 65° Northeast 528 608 40,100 414 Climbing Oakland Center
Wed 07:35:26 PM 39.5997 -119.2128 65° Northeast 532 612 41,100 480 Climbing Salt Lake Center
Wed 07:36:28 PM 39.6631 -119.0381 65° Northeast 531 611 41,500 488 Climbing Salt Lake Center
Wed 07:37:29 PM 39.7253 -118.8644 65° Northeast 527 606 42,100 488 Climbing Salt Lake Center
Wed 07:38:31 PM 39.7878 -118.6919 65° Northeast 524 603 42,500 364 Climbing Salt Lake Center
Wed 07:39:41 PM 39.8483 -118.5214 65° Northeast 520 598 42,900 321 Climbing Oakland Center
Wed 07:40:42 PM 39.9206 -118.3139 66° East 519 597 43,200 295 Climbing Oakland Center
Wed 07:41:43 PM 39.9800 -118.1408 66° East 521 600 43,500 244 Climbing Oakland Center
Wed 07:42:45 PM 40.0403 -117.9681 65° Northeast 522 601 43,700 244 Climbing Oakland Center
Wed 07:43:46 PM 40.1003 -117.7944 66° East 523 602 44,000 197 Climbing Oakland Center
Wed 07:44:47 PM 40.1589 -117.6208 66° East 522 601 44,100 153 Climbing Oakland Center
Wed 07:45:44 PM 40.2175 -117.4486 66° East 521 600 44,300 153 Climbing Salt Lake Center
Wed 07:46:45 PM 40.2767 -117.2753 66° East 521 600 44,400 49 Climbing Salt Lake Center
Wed 07:47:47 PM 40.3347 -117.1008 66° East 522 601 44,400 48 Level Salt Lake Center
Wed 07:48:49 PM 40.3933 -116.9264 66° East 523 602 44,500 97 Climbing Salt Lake Center
Wed 07:49:51 PM 40.4511 -116.7508 67° East 523 602 44,600 97 Climbing Salt Lake Center
Wed 07:50:53 PM 40.5075 -116.5758 67° East 523 602 44,700 98 Climbing Salt Lake Center
Wed 07:51:54 PM 40.5650 -116.4008 67° East 522 601 44,800 48 Climbing Salt Lake Center
Wed 07:52:57 PM 40.6319 -116.1878 67° East 521 600 44,800 48 Level Salt Lake Center
Wed 07:53:58 PM 40.6875 -116.0169 67° East 525 604 44,900 98 Climbing Salt Lake Center
Wed 07:55:00 PM 40.7417 -115.8431 68° East 519 597 45,000 49 Climbing Salt Lake Center
Wed 07:56:01 PM 40.7969 -115.6722 67° East 512 589 45,000  Level Salt Lake Center
Wed 07:57:03 PM 40.8514 -115.5017 67° East 507 583 45,000  Level Salt Lake Center
Wed 07:58:05 PM 40.9047 -115.3322 67° East 503 579 45,000  Level Salt Lake Center
Wed 07:59:07 PM 40.9681 -115.1303 67° East 499 574 45,000  Level Salt Lake Center
Wed 08:00:09 PM 41.0197 -114.9614 68° East 497 572 45,000  Level Salt Lake Center
Wed 08:01:10 PM 41.0756 -114.7917 66° East 499 574 45,000  Level Salt Lake Center
Wed 08:02:12 PM 41.1306 -114.6219 67° East 501 577 45,000  Level Salt Lake Center
Wed 08:03:14 PM 41.1808 -114.4511 69° East 501 577 45,000  Level Salt Lake Center
Wed 08:04:15 PM 41.2322 -114.2833 68° East 497 572 45,000  Level Salt Lake Center
Wed 08:05:17 PM 41.2819 -114.1128 69° East 496 571 45,000  Level Salt Lake Center
Wed 08:06:19 PM 41.3439 -113.9072 68° East 498 573 45,000  Level Salt Lake Center
Wed 08:07:21 PM 41.3844 -113.7289 73° East 502 578 45,000  Level Salt Lake Center
Wed 08:08:22 PM 41.4075 -113.5472 80° East 502 578 45,000 -195 Level Salt Lake Center
Wed 08:09:24 PM 41.4308 -113.3650 80° East 501 577 44,600 -677 Descending Salt Lake Center
Wed 08:10:26 PM 41.4581 -113.1742 79° East 517 595 43,600 -976 Descending Salt Lake Center
Wed 08:11:27 PM 41.4858 -112.9767 79° East 535 616 42,600 -976 Descending Salt Lake Center
Wed 08:12:29 PM 41.5147 -112.7769 79° East 546 628 41,600 -726 Descending Salt Lake Center
Wed 08:13:31 PM 41.5422 -112.5750 80° East 550 633 41,100 -293 Descending Salt Lake Center
Wed 08:14:32 PM 41.5750 -112.3300 80° East 556 640 41,000 -49 Descending Salt Lake Center
Wed 08:15:34 PM 41.6025 -112.1269 80° East 554 638 41,000  Level Salt Lake Center
Wed 08:16:36 PM 41.6297 -111.9228 80° East 556 640 41,000  Level Salt Lake Center
Wed 08:17:37 PM 41.6561 -111.7192 80° East 554 638 41,000  Level Salt Lake Center
Wed 08:18:39 PM 41.6825 -111.5156 80° East 553 636 41,000  Level Salt Lake Center
Wed 08:19:41 PM 41.7075 -111.3119 81° East 553 636 41,000  Level Salt Lake Center
Wed 08:20:42 PM 41.7331 -111.1100 80° East 551 634 41,000  Level Salt Lake Center
Wed 08:21:44 PM 41.7592 -110.8961 81° East 551 634 41,000  Level Salt Lake Center
Wed 08:22:46 PM 41.7864 -110.6708 81° East 549 632 41,000  Level Salt Lake Center
Wed 08:23:47 PM 41.8092 -110.4789 81° East 547 629 41,000  Level Salt Lake Center
Wed 08:24:49 PM 41.8314 -110.2869 81° East 545 627 41,000  Level Salt Lake Center
Wed 08:25:51 PM 41.8572 -110.0611 81° East 548 631 41,000  Level Salt Lake Center
Wed 08:26:53 PM 41.8792 -109.8664 81° East 549 632 41,000  Level Salt Lake Center
Wed 08:27:54 PM 41.9044 -109.6375 81° East 553 636 41,000  Level Salt Lake Center
Wed 08:28:56 PM 41.9261 -109.4414 81° East 553 636 41,000  Level Salt Lake Center
Wed 08:29:57 PM 41.9469 -109.2450 82° East 551 634 41,000  Level Salt Lake Center
Wed 08:30:59 PM 41.9717 -109.0153 82° East 553 636 41,000  Level Salt Lake Center
Wed 08:32:01 PM 41.9925 -108.8175 82° East 555 639 41,000  Level Salt Lake Center
Wed 08:33:02 PM 42.0161 -108.5900 82° East 549 632 41,000  Level Salt Lake Center
Wed 08:34:04 PM 42.0358 -108.3953 82° East 547 629 41,000  Level Salt Lake Center
Wed 08:35:05 PM 42.0556 -108.2011 82° East 547 629 41,000  Level Salt Lake Center
Wed 08:36:07 PM 42.0750 -107.9722 83° East 551 634 41,000  Level Salt Lake Center
Wed 08:37:09 PM 42.0933 -107.7797 83° East 547 629 41,000  Level Salt Lake Center
Wed 08:38:10 PM 42.1128 -107.5586 83° East 535 616 41,000  Level Salt Lake Center
Wed 08:39:12 PM 42.1306 -107.3697 83° East 531 611 41,000 145 Level Denver Center
Wed 08:40:14 PM 42.1489 -107.1506 83° East 527 606 41,300 341 Climbing Denver Center
Wed 08:41:15 PM 42.1656 -106.9639 83° East 525 604 41,700 341 Climbing Denver Center
Wed 08:42:17 PM 42.1825 -106.7772 83° East 524 603 42,000 339 Climbing Denver Center
Wed 08:43:19 PM 42.2000 -106.5567 84° East 532 612 42,400 293 Climbing Denver Center
Wed 08:44:20 PM 42.2158 -106.3519 84° East 532 612 42,600 244 Climbing Denver Center
Wed 08:45:22 PM 42.2308 -106.1636 84° East 529 609 42,900 194 Climbing Denver Center
Wed 08:46:24 PM 42.2486 -105.9469 84° East 524 603 43,000 49 Climbing Denver Center
Wed 08:47:25 PM 42.2619 -105.7583 84° East 528 608 43,000  Level Denver Center
Wed 08:48:27 PM 42.2803 -105.5400 83° East 526 605 43,000  Level Denver Center
Wed 08:49:29 PM 42.2931 -105.3522 85° East 527 606 43,000  Level Denver Center
Wed 08:50:30 PM 42.3056 -105.1644 85° East 527 606 43,000  Level Denver Center
Wed 08:51:32 PM 42.3211 -104.9456 84° East 528 608 43,000  Level Denver Center
Wed 08:52:34 PM 42.3331 -104.7556 85° East 532 612 43,000  Level Denver Center
Wed 08:53:36 PM 42.3464 -104.5367 85° East 532 612 43,000  Level Denver Center
Wed 08:54:37 PM 42.3592 -104.3472 85° East 534 615 43,000  Level Denver Center
Wed 08:55:39 PM 42.3728 -104.1236 85° East 538 619 43,000  Level Denver Center
Wed 08:56:53 PM 42.3850 -103.9317 85° East 539 620 43,000  Level Denver Center
Wed 08:57:55 PM 42.4000 -103.6747 85° East 539 620 43,000  Level Denver Center
Wed 08:58:56 PM 42.4122 -103.4492 86° East 540 621 43,000  Level Denver Center
Wed 08:59:58 PM 42.4217 -103.2578 86° East 536 617 43,000  Level Denver Center
Wed 09:01:00 PM 42.4331 -103.0633 85° East 541 623 43,000  Level Denver Center
Wed 09:02:01 PM 42.4450 -102.8394 86° East 537 618 43,000  Level Denver Center
Wed 09:03:03 PM 42.4533 -102.6481 87° East 535 616 43,000  Level Denver Center
Wed 09:04:05 PM 42.4650 -102.4253 86° East 534 615 43,000  Level Denver Center
Wed 09:05:06 PM 42.4733 -102.2333 87° East 534 615 43,000  Level Denver Center
Wed 09:06:08 PM 42.4819 -102.0108 87° East 532 612 43,000  Level Denver Center
Wed 09:07:10 PM 42.4900 -101.8128 87° East 535 616 43,000  Level Denver Center
Wed 09:08:11 PM 42.4986 -101.6203 86° East 534 615 43,000  Level Denver Center
Wed 09:09:13 PM 42.5067 -101.3964 87° East 533 613 43,000  Level Denver Center
Wed 09:10:15 PM 42.5125 -101.2036 88° East 534 615 43,000  Level Denver Center
Wed 09:11:17 PM 42.5214 -100.9808 87° East 531 611 43,000  Level Denver Center
Wed 09:12:18 PM 42.5275 -100.7875 87° East 536 617 43,000  Level Denver Center
Wed 09:13:20 PM 42.5325 -100.5975 88° East 530 610 43,000  Level Denver Center
Wed 09:14:22 PM 42.5389 -100.3736 88° East 532 612 43,000  Level Denver Center
Wed 09:15:35 PM 42.5447 -100.1822 88° East 531 611 43,000  Level Denver Center
Wed 09:16:25 PM 42.5494 -99.9697 88° East 526 605 43,000  Level Minneapolis Center
Wed 09:17:27 PM 42.5544 -99.7878 88° East 525 604 43,000  Level Minneapolis Center
Wed 09:18:29 PM 42.5597 -99.5500 88° East 524 603 43,000  Level Minneapolis Center
Wed 09:19:31 PM 42.5639 -99.3494 88° East 529 609 43,000  Level Minneapolis Center
Wed 09:20:33 PM 42.5669 -99.1508 89° East 526 605 43,000  Level Minneapolis Center
Wed 09:21:35 PM 42.5714 -98.9525 88° East 525 604 43,000  Level Minneapolis Center
Wed 09:22:37 PM 42.5736 -98.7531 89° East 525 604 43,000  Level Minneapolis Center
Wed 09:23:39 PM 42.5758 -98.5544 89° East 525 604 43,000  Level Minneapolis Center
Wed 09:24:41 PM 42.5781 -98.3581 89° East 521 600 43,000  Level Minneapolis Center
Wed 09:25:43 PM 42.5792 -98.1625 89° East 519 597 43,000  Level Minneapolis Center
Wed 09:26:57 PM 42.5814 -97.9269 89° East 519 597 43,000  Level Minneapolis Center
Wed 09:28:11 PM 42.5822 -97.7106 90° East 520 598 43,000  Level Minneapolis Center
Wed 09:29:13 PM 42.5831 -97.4750 90° East 520 598 43,000  Level Minneapolis Center
Wed 09:30:15 PM 42.5839 -97.2778 90° East 522 601 43,000  Level Minneapolis Center
Wed 09:31:16 PM 42.5842 -97.0803 90° East 522 601 43,000  Level Minneapolis Center
Wed 09:32:31 PM 42.5831 -96.8442 90° East 521 600 43,000  Level Minneapolis Center
Wed 09:33:33 PM 42.5831 -96.6061 90° East 523 602 43,000 97 Level Minneapolis Center
Wed 09:34:35 PM 42.5847 -96.4086 89° East 523 602 43,200 244 Climbing Minneapolis Center
Wed 09:35:36 PM 42.5961 -96.2128 85° East 520 598 43,500 244 Climbing Minneapolis Center
Wed 09:36:38 PM 42.6039 -96.0594 86° East 513 590 43,700 290 Climbing Minneapolis Center
Wed 09:37:40 PM 42.6153 -95.8283 86° East 511 588 44,100 293 Climbing Minneapolis Center
Wed 09:38:41 PM 42.6236 -95.6361 87° East 509 586 44,300 195 Climbing Minneapolis Center
Wed 09:39:43 PM 42.6342 -95.4056 86° East 509 586 44,500 145 Climbing Minneapolis Center
Wed 09:40:45 PM 42.6422 -95.2142 87° East 506 582 44,600 146 Climbing Minneapolis Center
Wed 09:41:46 PM 42.6503 -95.0244 87° East 504 580 44,800 195 Climbing Minneapolis Center
Wed 09:42:48 PM 42.6572 -94.8342 87° East 504 580 45,000 98 Climbing Minneapolis Center
Wed 09:43:49 PM 42.6650 -94.6419 87° East 507 583 45,000  Level Minneapolis Center
Wed 09:44:51 PM 42.6711 -94.4467 87° East 513 590 45,000  Level Minneapolis Center
Wed 09:46:05 PM 42.6772 -94.2553 87° East 513 590 45,000  Level Minneapolis Center
Wed 09:47:07 PM 42.6853 -94.0247 87° East 514 592 45,000  Level Minneapolis Center
Wed 09:48:08 PM 42.6919 -93.7944 88° East 514 592 45,000  Level Minneapolis Center
Wed 09:49:10 PM 42.6978 -93.6019 88° East 516 594 45,000  Level Minneapolis Center
Wed 09:49:46 PM 42.7006 -93.4861 88° East 517 595 45,000  Level Minneapolis Center
Wed 09:50:48 PM 42.7067 -93.2919 87° East 519 597 45,000  Level Minneapolis Center
Wed 09:51:49 PM 42.7108 -93.0969 88° East 520 598 45,000  Level Minneapolis Center
Wed 09:52:18 PM 42.7125 -92.9794 89° East 520 598 45,000  Level Chicago Center
Wed 09:53:32 PM 42.7144 -92.7467 89° East 519 597 45,000  Level Chicago Center
Wed 09:54:34 PM 42.7194 -92.5522 88° East 519 597 45,000  Level Chicago Center
Wed 09:55:36 PM 42.7236 -92.3578 88° East 520 598 45,000  Level Chicago Center
Wed 09:56:38 PM 42.7286 -92.1639 88° East 520 598 45,000  Level Chicago Center
Wed 09:57:40 PM 42.7319 -91.9325 89° East 516 594 45,000  Level Chicago Center
Wed 09:58:41 PM 42.7344 -91.7381 89° East 518 596 45,000  Level Chicago Center
Wed 09:59:43 PM 42.7378 -91.5458 89° East 514 592 45,000  Level Chicago Center
Wed 10:00:45 PM 42.7394 -91.3317 89° East 518 596 45,000  Level Chicago Center
Wed 10:01:47 PM 42.7408 -91.1417 89° East 510 587 45,000  Level Chicago Center
Wed 10:02:48 PM 42.7417 -90.9519 90° East 508 585 45,000  Level Chicago Center
Wed 10:03:50 PM 42.7425 -90.7619 90° East 507 583 45,000  Level Chicago Center
Wed 10:04:52 PM 42.7425 -90.5719 90° East 506 582 45,000  Level Chicago Center
Wed 10:05:53 PM 42.7433 -90.3819 90° East 507 583 45,000  Level Chicago Center
Wed 10:06:55 PM 42.7419 -90.1536 90° East 508 585 45,000  Level Chicago Center
Wed 10:07:57 PM 42.7414 -89.9642 90° East 507 583 45,000  Level Chicago Center
Wed 10:08:58 PM 42.7406 -89.7836 90° East 506 582 45,000  Level Chicago Center
Wed 10:10:00 PM 42.7394 -89.5608 90° East 507 583 45,000  Level Chicago Center
Wed 10:11:02 PM 42.7383 -89.3689 90° East 508 585 45,000  Level Chicago Center
Wed 10:12:03 PM 42.7364 -89.1783 91° East 507 583 45,000  Level Chicago Center
Wed 10:13:05 PM 42.7342 -88.9864 91° East 507 583 45,000  Level Chicago Center
Wed 10:14:07 PM 42.7314 -88.7956 91° East 506 582 45,000  Level Chicago Center
Wed 10:15:08 PM 42.7283 -88.6067 91° East 504 580 45,000  Level Chicago Center
Wed 10:16:10 PM 42.7253 -88.3817 91° East 512 589 45,000  Level Chicago Center
Wed 10:17:11 PM 42.7222 -88.1911 91° East 508 585 45,000  Level Chicago Center
Wed 10:18:13 PM 42.7186 -88.0008 91° East 507 583 45,000  Level Chicago Center
Wed 10:19:15 PM 42.7139 -87.8100 92° East 506 582 45,000  Level Chicago Center
Wed 10:20:16 PM 42.7100 -87.6183 92° East 509 586 45,000  Level Chicago Center
Wed 10:21:18 PM 42.7047 -87.4275 92° East 509 586 45,000  Level Chicago Center
Wed 10:22:19 PM 42.6994 -87.2122 92° East 507 583 45,000  Level Chicago Center
Wed 10:23:21 PM 42.6931 -87.0200 93° East 510 587 45,000  Level Chicago Center
Wed 10:24:22 PM 42.6881 -86.8281 92° East 512 589 45,000  Level Chicago Center
Wed 10:25:24 PM 42.6822 -86.6361 92° East 511 588 45,000  Level Chicago Center
Wed 10:26:25 PM 42.6758 -86.4428 93° East 516 594 45,000  Level Chicago Center
Wed 10:27:27 PM 42.6683 -86.2497 93° East 517 595 45,000  Level Chicago Center
Wed 10:28:28 PM 42.6594 -86.0172 93° East 520 598 45,000  Level Chicago Center
Wed 10:29:30 PM 42.6533 -85.8253 92° East 517 595 45,000  Level Chicago Center
Wed 10:30:31 PM 42.6450 -85.6328 93° East 516 594 45,000  Level Chicago Center
Wed 10:31:32 PM 42.6369 -85.4403 93° East 517 595 45,000  Level Chicago Center
Wed 10:32:34 PM 42.6286 -85.2469 93° East 517 595 45,000  Level Chicago Center
Wed 10:33:35 PM 42.6197 -85.0539 94° East 516 594 45,000  Level Chicago Center
Wed 10:34:37 PM 42.6086 -84.8208 94° East 518 596 45,000  Level Chicago Center
Wed 10:35:38 PM 42.5908 -84.6269 97° East 520 598 45,000  Level Chicago Center
Wed 10:36:40 PM 42.5764 -84.4339 96° East 517 595 45,000  Level Chicago Center
Wed 10:37:41 PM 42.5611 -84.2389 96° East 521 600 45,000  Level Chicago Center
Wed 10:38:00 PM 42.5544 -84.1689 97° East 519 597 45,000  Level Cleveland Center
Wed 10:39:00 PM 42.5375 -83.9706 97° East 519 597 45,000  Level Cleveland Center
Wed 10:40:00 PM 42.5222 -83.7725 96° East 524 603 45,000  Level Cleveland Center
Wed 10:41:00 PM 42.5067 -83.5800 96° East 524 603 45,000  Level Cleveland Center
Wed 10:42:00 PM 42.4908 -83.3794 96° East 524 603 45,000  Level Cleveland Center
Wed 10:43:00 PM 42.4725 -83.1842 97° East 524 603 45,000  Level Cleveland Center
Wed 10:44:00 PM 42.4517 -82.9919 98° East 524 603 45,000  Level Cleveland Center
Wed 10:45:00 PM 42.4347 -82.7944 97° East 524 603 45,000  Level Cleveland Center
Wed 10:46:00 PM 42.4153 -82.6025 98° East 524 603 45,000  Level Cleveland Center
Wed 10:47:00 PM 42.3978 -82.4108 97° East 524 603 45,000  Level Cleveland Center
Wed 10:48:00 PM 42.3778 -82.2161 98° East 524 603 45,000  Level Cleveland Center
Wed 10:49:00 PM 42.3614 -82.0444 97° East 524 603 45,000  Level Cleveland Center
Wed 10:50:00 PM 42.3428 -81.8500 97° East 524 603 45,000  Level Cleveland Center
Wed 10:51:00 PM 42.3239 -81.6586 98° East 524 603 45,000  Level Cleveland Center
Wed 10:52:00 PM 42.3047 -81.4647 98° East 519 597 45,000  Level Cleveland Center
Wed 10:53:00 PM 42.2831 -81.2736 99° East 524 603 45,000  Level Cleveland Center
Wed 10:54:00 PM 42.2611 -81.0600 98° East 524 603 45,000  Level Cleveland Center
Wed 10:55:00 PM 42.2411 -80.8719 98° East 521 600 45,000  Level Cleveland Center
Wed 10:56:00 PM 42.2164 -80.6756 100° East 521 600 45,000  Level Cleveland Center
Wed 10:57:00 PM 42.1956 -80.4794 98° East 521 600 45,000  Level Cleveland Center
Wed 10:58:00 PM 42.1742 -80.2833 98° East 521 600 45,000  Level Cleveland Center
Wed 10:59:00 PM 42.1508 -80.0958 99° East 521 600 45,000 -300 Level Cleveland Center
Wed 11:00:00 PM 42.1311 -79.9253 99° East 521 600 44,400 -800 Descending Cleveland Center
Wed 11:01:00 PM 42.1089 -79.7353 99° East 516 594 43,400 -1,100 Descending Cleveland Center
Wed 11:02:00 PM 42.0867 -79.5481 99° East 516 594 42,200 -1,150 Descending Cleveland Center
Wed 11:03:00 PM 42.0597 -79.3611 101° East 509 586 41,100 -1,150 Descending Cleveland Center
Wed 11:04:00 PM 42.0264 -79.1744 103° East 509 586 39,900 -1,050 Descending Cleveland Center
Wed 11:05:00 PM 41.9967 -78.9822 102° East 517 595 39,000 -500 Descending Cleveland Center
Wed 11:06:00 PM 41.9647 -78.7903 103° East 517 595 38,900 -550 Descending Cleveland Center
Wed 11:07:00 PM 41.9325 -78.6014 103° East 517 595 37,900 -1,000 Descending Cleveland Center
Wed 11:08:00 PM 41.8997 -78.4100 103° East 522 601 36,900 -975 Descending Cleveland Center
Wed 11:09:40 PM 41.8475 -78.0969 103° East 539 620 35,300 -708 Descending New York Center
Wed 11:10:41 PM 41.8083 -77.8839 104° East 539 620 35,000 -151 Descending New York Center
Wed 11:11:39 PM 41.7739 -77.6908 103° East 539 620 35,000  Level New York Center
Wed 11:12:41 PM 41.7411 -77.4983 103° East 539 620 35,000  Level New York Center
Wed 11:13:41 PM 41.7064 -77.3031 103° East 539 620 35,000  Level New York Center
Wed 11:14:39 PM 41.6689 -77.1106 105° East 539 620 35,000  Level New York Center
Wed 11:15:41 PM 41.6161 -76.9253 111° Southeast 534 615 35,000  Level New York Center
Wed 11:16:40 PM 41.5689 -76.7461 109° East 524 603 35,000 -1,109 Level New York Center
Wed 11:17:40 PM 41.5250 -76.5842 110° East 516 594 32,800 -2,500 Descending New York Center
Wed 11:18:40 PM 41.4772 -76.4083 110° East 516 594 30,000 -2,874 Descending New York Center
Wed 11:19:39 PM 41.4200 -76.2044 110° East 522 601 27,100 -2,800 Descending New York Center
Wed 11:20:40 PM 41.3697 -76.0289 111° Southeast 518 596 24,400 -2,656 Descending New York Center
Wed 11:21:41 PM 41.3206 -75.8622 111° Southeast 502 578 21,700 -2,949 Descending New York Center
Wed 11:22:38 PM 41.2772 -75.7097 111° Southeast 468 539 18,600 -3,600 Descending New York Center
Wed 11:23:41 PM 41.2422 -75.5969 112° Southeast 409 471 14,500 -4,180 Descending New York Center
Wed 11:24:40 PM 41.2033 -75.4783 114° Southeast 330 380 10,100 -3,915 Descending New York Center
Wed 11:25:39 PM 41.1697 -75.3794 114° Southeast 305 351 6,800 -2,050 Descending New York Center
Wed 11:26:40 PM 41.1378 -75.2836 114° Southeast 289 333 6,000 -344 Descending New York Center
Wed 11:27:41 PM 41.1036 -75.1986 118° Southeast 284 327 6,100  Climbing New York Center
Wed 11:28:40 PM 41.0353 -75.1861 172° South 235 270 6,000  Descending New York Center
Wed 11:29:41 PM 40.9569 -75.1617 167° South 250 288 6,100  Climbing New York Center
Wed 11:30:41 PM 40.9031 -75.1006 139° Southeast 264 304 6,000 -50 Descending New York Center
Wed 11:31:41 PM 40.8536 -75.0261 131° Southeast 276 318 6,000  Level New York Center
Wed 11:32:39 PM 40.8658 -74.9225 81° East 258 297 6,000 -353 Level New York Center
Wed 11:33:40 PM 40.8861 -74.8139 76° East 275 316 5,300 -942 Descending New York Center
Wed 11:34:40 PM 40.9061 -74.7164 75° East 280 322 4,100 -694 Descending New York Center
Wed 11:35:41 PM 40.9261 -74.6186 75° East 275 316 3,900 -500 Descending New York Center
Wed 11:36:40 PM 40.9458 -74.5208 75° East 275 316 3,100 -403 Descending New York Center
Wed 11:37:40 PM 40.9636 -74.4203 77° East 275 316 3,100  Level New York Center
Wed 11:38:23 PM 40.9833 -74.3500 70° East 280 322 3,100 -433 Level New York TRACON
Wed 11:39:17 PM 41.0000 -74.2667 75° East 270 311 2,400 -500 Descending New York TRACON
Wed 11:40:23 PM 41.0167 -74.1667 78° East 247 284 2,100 -143 Descending New York TRACON
Wed 11:41:23 PM 41.0333 -74.0833 75° East 239 275 2,100  Level New York TRACON
Wed 11:42:23 PM 40.9833 -74.0500 153° Southeast 178 205 2,100 -200 Level New York TRACON
Wed 11:43:23 PM 40.9333 -74.0500 180° South 142 163 1,700 -500 Descending New York TRACON
Wed 11:44:23 PM 40.9000 -74.0500 180° South 124 143 1,100 -600 Descending New York TRACON
Wed 11:45:23 PM 40.8833 -74.0500 180° South 111 128 500 -600 Descending New York TRACON
Wed 11:47:00 PM 40.8500 -74.0500 159° South  Level FlightAware Approximate
Wed 11:54:00 PM 40.8501 -74.0608 159° South  Level Estimated
Wed 11:55:00 PM 40.8501 -74.0608 159° South  Level Estimated

Login

Don't have an account? Register now (free) for customized features, flight alerts, and more!